LEJR/XRY METAR and TAF weather

Enter ICAO airport designator
Station Type Date Time Source
LEJR METAR 2020/01/28 21:00 UTC NOAA

LEJR 282100Z 01004KT 9999 BKN028 14/12 Q1026


Station Type Date Time Source
LEJR Decoded METAR 2020/01/28 21:00 UTC NOAA

Jerez De La Fronteraaeropuerto, Spain (LEJR) 36-45N 006-04W 28M
Jan 28, 2020 - 04:00 PM EST / 2020.01.28 2100 UTC
Wind: from the N (010 degrees) at 5 MPH (4 KT):0
Visibility: greater than 7 mile(s):0
Sky conditions: mostly cloudy
Temperature: 57 F (14 C)
Dew Point: 53 F (12 C)
Relative Humidity: 87%
Pressure (altimeter): 30.30 in. Hg (1026 hPa)
ob: LEJR 282100Z 01004KT 9999 BKN028 14/12 Q1026
cycle: 21

Station Type Date Time Source
LEJR TAF 2020/01/28 18:27 UTC NOAA

TAF LEJR 281700Z 2818/2918 03004KT 9999 SCT015 SCT030 TX18/2914Z TN06/2906Z PROB40
TEMPO 2822/2910 3000 BR BKN014

Example: see airport list